createdAt,value
2023-04-01T00:00:54.056Z,99537.50
2023-04-01T00:03:22.686Z,99547.09
2023-04-01T00:05:50.457Z,99557.44
2023-04-01T00:08:17.980Z,99545.22
2023-04-01T00:10:46.482Z,99551.25
2023-04-01T00:13:14.019Z,99571.38
2023-04-01T00:15:42.092Z,99557.44
2023-04-01T00:18:09.761Z,99562.59
2023-04-01T00:20:37.326Z,99552.16
2023-04-01T00:23:05.563Z,99570.75
2023-04-01T00:25:33.322Z,99570.19
2023-04-01T00:28:01.088Z,99570.03
2023-04-01T00:30:28.604Z,99580.94
2023-04-01T00:32:56.911Z,99572.63
2023-04-01T00:35:24.617Z,99570.59
2023-04-01T00:37:52.106Z,99578.28
2023-04-01T00:40:41.935Z,99551.81
2023-04-01T00:43:21.509Z,99569.25
2023-04-01T00:45:50.464Z,99581.31
2023-04-01T00:48:22.620Z,99581.25
2023-04-01T00:50:55.456Z,99572.63
2023-04-01T00:53:24.610Z,99589.53
2023-04-01T00:56:06.861Z,99585.00
2023-04-01T00:58:39.414Z,99597.59
2023-04-01T01:01:07.308Z,99595.41
2023-04-01T01:03:35.275Z,99580.22
2023-04-01T01:06:11.376Z,99587.03
2023-04-01T01:08:44.924Z,99579.03
2023-04-01T01:11:15.347Z,99572.06
2023-04-01T01:14:02.348Z,99590.41
2023-04-01T01:16:43.096Z,99583.47
2023-04-01T01:19:16.572Z,99583.94
2023-04-01T01:22:28.875Z,99579.38
2023-04-01T01:25:15.121Z,99580.31
2023-04-01T01:27:49.084Z,99583.97
2023-04-01T01:30:31.930Z,99588.06
2023-04-01T01:33:08.444Z,99573.81
2023-04-01T01:35:46.007Z,99576.16
2023-04-01T01:38:22.439Z,99580.75
2023-04-01T01:40:58.834Z,99559.56
2023-04-01T01:43:33.527Z,99563.06
2023-04-01T01:46:07.779Z,99573.28
2023-04-01T01:48:38.008Z,99561.28
2023-04-01T01:51:09.121Z,99582.72
2023-04-01T01:53:37.325Z,99571.94
2023-04-01T01:56:05.537Z,99564.47
2023-04-01T01:58:43.530Z,99553.47
2023-04-01T02:01:17.971Z,99570.81
2023-04-01T02:03:47.752Z,99558.06
2023-04-01T02:06:18.201Z,99572.94
2023-04-01T02:09:02.044Z,99572.00
2023-04-01T02:11:34.857Z,99577.22
2023-04-01T02:14:02.497Z,99571.53
2023-04-01T02:16:35.865Z,99574.66
2023-04-01T02:19:08.434Z,99573.81
2023-04-01T02:21:38.059Z,99569.88
2023-04-01T02:24:08.956Z,99574.00
2023-04-01T02:26:36.612Z,99568.47
2023-04-01T02:29:06.515Z,99575.66
2023-04-01T02:31:35.455Z,99578.09
2023-04-01T02:34:05.218Z,99567.13
2023-04-01T02:36:33.417Z,99562.03
2023-04-01T02:39:03.466Z,99553.50
2023-04-01T02:41:31.221Z,99560.09
2023-04-01T02:43:59.600Z,99554.63
2023-04-01T02:46:27.118Z,99562.81
2023-04-01T02:48:54.846Z,99562.69
2023-04-01T02:51:22.290Z,99555.41
2023-04-01T02:53:49.763Z,99569.97
2023-04-01T02:56:17.210Z,99582.75
2023-04-01T02:58:44.763Z,99580.03
2023-04-01T03:01:12.233Z,99582.00
2023-04-01T03:03:39.728Z,99585.66
2023-04-01T03:06:13.056Z,99600.88
2023-04-01T03:08:40.988Z,99587.09
2023-04-01T03:11:08.702Z,99596.84
2023-04-01T03:13:38.170Z,99597.13
2023-04-01T03:16:06.435Z,99580.38
2023-04-01T03:18:33.934Z,99573.69
2023-04-01T03:21:33.747Z,99577.84
2023-04-01T03:24:02.442Z,99606.72
2023-04-01T03:26:30.797Z,99608.81
2023-04-01T03:28:58.930Z,99596.16
2023-04-01T03:31:26.573Z,99585.47
2023-04-01T03:33:57.532Z,99572.56
2023-04-01T03:36:25.085Z,99591.66
2023-04-01T03:38:52.703Z,99581.28
2023-04-01T03:41:26.662Z,99599.19
2023-04-01T03:43:55.050Z,99608.88
2023-04-01T03:46:23.544Z,99599.63
2023-04-01T03:48:51.095Z,99609.22
2023-04-01T03:51:18.635Z,99605.00
2023-04-01T03:53:46.301Z,99605.00
2023-04-01T03:56:13.793Z,99610.44
2023-04-01T03:58:41.848Z,99631.56
2023-04-01T04:01:19.243Z,99620.94
2023-04-01T04:03:49.994Z,99632.53
2023-04-01T04:06:19.514Z,99609.25
2023-04-01T04:08:47.684Z,99623.22
2023-04-01T04:11:15.643Z,99620.78
2023-04-01T04:13:44.587Z,99629.56
2023-04-01T04:16:13.564Z,99634.63
2023-04-01T04:18:46.004Z,99648.56
2023-04-01T04:21:15.253Z,99637.78
2023-04-01T04:23:44.085Z,99609.00
2023-04-01T04:26:14.617Z,99632.75
2023-04-01T04:28:42.786Z,99636.69
2023-04-01T04:31:10.438Z,99645.50
2023-04-01T04:33:38.095Z,99649.38
2023-04-01T04:36:06.110Z,99636.25
2023-04-01T04:38:33.868Z,99640.56
2023-04-01T04:41:01.337Z,99639.47
2023-04-01T04:43:28.750Z,99643.22
2023-04-01T04:45:57.675Z,99623.72
2023-04-01T04:48:25.393Z,99633.16
2023-04-01T04:50:52.976Z,99652.06
2023-04-01T04:53:24.001Z,99651.47
2023-04-01T04:55:51.549Z,99642.63
2023-04-01T04:58:44.376Z,99648.03
2023-04-01T05:01:17.679Z,99653.44
2023-04-01T05:03:46.238Z,99653.44
2023-04-01T05:06:15.754Z,99645.66
2023-04-01T05:08:44.914Z,99672.22
2023-04-01T05:11:14.895Z,99643.88
2023-04-01T05:13:44.317Z,99650.78
2023-04-01T05:16:14.023Z,99644.63
2023-04-01T05:18:41.668Z,99657.13
2023-04-01T05:21:11.095Z,99638.06
2023-04-01T05:23:39.321Z,99649.28
2023-04-01T05:26:09.127Z,99637.63
2023-04-01T05:28:36.690Z,99661.66
2023-04-01T05:31:04.945Z,99656.91
2023-04-01T05:33:36.401Z,99651.03
2023-04-01T05:36:13.418Z,99668.50
2023-04-01T05:38:41.375Z,99655.50
2023-04-01T05:41:11.428Z,99658.72
2023-04-01T05:43:43.657Z,99668.56
2023-04-01T05:46:33.794Z,99663.28
2023-04-01T05:49:15.602Z,99664.72
2023-04-01T05:51:43.421Z,99667.50
2023-04-01T05:54:10.824Z,99669.25
2023-04-01T05:56:39.289Z,99676.66
2023-04-01T05:59:07.202Z,99679.63
2023-04-01T06:01:34.581Z,99667.72
2023-04-01T06:04:02.131Z,99656.19
2023-04-01T06:06:32.753Z,99661.34
2023-04-01T06:09:19.313Z,99682.53
2023-04-01T06:12:20.418Z,99680.88
2023-04-01T06:15:32.481Z,99672.44
2023-04-01T06:18:18.395Z,99673.06
2023-04-01T06:21:03.600Z,99675.47
2023-04-01T06:23:37.311Z,99668.75
2023-04-01T06:26:17.901Z,99676.38
2023-04-01T06:29:04.172Z,99671.72
2023-04-01T06:31:37.808Z,99667.94
2023-04-01T06:34:15.830Z,99685.56
2023-04-01T06:37:12.142Z,99692.09
2023-04-01T06:40:22.154Z,99701.81
2023-04-01T06:42:58.595Z,99697.78
2023-04-01T06:46:00.567Z,99692.06
2023-04-01T06:49:01.912Z,99691.59
2023-04-01T06:52:07.015Z,99694.88
2023-04-01T06:55:22.817Z,99683.06
2023-04-01T06:58:24.033Z,99696.00
2023-04-01T07:00:59.132Z,99691.31
2023-04-01T07:03:48.313Z,99701.56
2023-04-01T07:06:32.680Z,99709.94
2023-04-01T07:09:06.702Z,99702.69
2023-04-01T07:12:01.654Z,99706.84
2023-04-01T07:15:19.944Z,99709.31
2023-04-01T07:17:51.925Z,99710.50
2023-04-01T07:20:22.167Z,99714.38
2023-04-01T07:22:52.523Z,99707.19
2023-04-01T07:25:36.573Z,99710.50
2023-04-01T07:28:23.296Z,99714.22
2023-04-01T07:31:14.747Z,99714.38
2023-04-01T07:34:06.387Z,99705.41
2023-04-01T07:36:52.553Z,99698.63
2023-04-01T07:39:26.109Z,99705.22
2023-04-01T07:42:20.800Z,99710.78
2023-04-01T07:45:22.256Z,99708.59
2023-04-01T07:48:19.659Z,99721.47
2023-04-01T07:51:02.055Z,99721.59
2023-04-01T07:53:48.398Z,99727.88
2023-04-01T07:57:04.159Z,99713.50
2023-04-01T07:59:57.703Z,99699.13
2023-04-01T08:02:49.233Z,99720.19
2023-04-01T08:05:28.936Z,99724.75
2023-04-01T08:08:10.530Z,99713.22
2023-04-01T08:11:14.906Z,99710.06
2023-04-01T08:14:03.287Z,99714.72
2023-04-01T08:17:13.875Z,99696.97
2023-04-01T08:20:06.104Z,99711.69
2023-04-01T08:22:58.985Z,99712.06
2023-04-01T08:25:35.320Z,99709.88
2023-04-01T08:28:09.391Z,99717.31
2023-04-01T08:30:46.960Z,99715.78
2023-04-01T08:33:32.147Z,99707.06
2023-04-01T08:36:22.616Z,99713.53
2023-04-01T08:39:16.413Z,99707.25
2023-04-01T08:41:54.090Z,99706.28
2023-04-01T08:45:01.184Z,99708.22
2023-04-01T08:48:09.761Z,99708.22
2023-04-01T08:51:03.152Z,99712.81
2023-04-01T08:53:50.785Z,99714.22
2023-04-01T08:56:43.404Z,99700.81
2023-04-01T08:59:37.893Z,99720.56
2023-04-01T09:02:28.150Z,99719.59
2023-04-01T09:05:19.819Z,99723.19
2023-04-01T09:08:02.282Z,99718.66
2023-04-01T09:10:35.908Z,99723.19
2023-04-01T09:13:29.967Z,99739.56
2023-04-01T09:16:06.090Z,99721.31
2023-04-01T09:19:18.379Z,99722.84
2023-04-01T09:22:07.321Z,99721.53
2023-04-01T09:25:26.528Z,99718.72
2023-04-01T09:28:28.882Z,99712.25
2023-04-01T09:31:09.085Z,99718.97
2023-04-01T09:34:12.426Z,99700.63
2023-04-01T09:37:22.606Z,99716.72
2023-04-01T09:40:22.355Z,99707.44
2023-04-01T09:43:07.197Z,99720.63
2023-04-01T09:45:48.542Z,99720.06
2023-04-01T09:48:42.221Z,99725.16
2023-04-01T09:51:30.986Z,99718.03
2023-04-01T09:54:25.755Z,99726.75
2023-04-01T09:57:16.658Z,99710.09
2023-04-01T09:59:51.619Z,99718.81
2023-04-01T10:03:14.644Z,99714.81
2023-04-01T10:06:11.411Z,99709.00
2023-04-01T10:08:57.786Z,99712.09
2023-04-01T10:11:56.187Z,99703.13
2023-04-01T10:14:37.069Z,99704.94
2023-04-01T10:17:20.038Z,99694.69
2023-04-01T10:19:53.284Z,99703.50
2023-04-01T10:22:23.628Z,99695.00
2023-04-01T10:25:25.079Z,99683.28
2023-04-01T10:28:44.586Z,99697.72
2023-04-01T10:31:52.183Z,99684.81
2023-04-01T10:34:33.447Z,99696.63
2023-04-01T10:37:09.681Z,99684.97
2023-04-01T10:40:05.159Z,99689.56
2023-04-01T10:43:01.346Z,99689.47
2023-04-01T10:45:58.802Z,99680.50
2023-04-01T10:48:48.483Z,99684.75
2023-04-01T10:51:53.172Z,99675.22
2023-04-01T10:54:58.274Z,99670.38
2023-04-01T10:58:18.967Z,99669.28
2023-04-01T11:01:55.018Z,99659.72
2023-04-01T11:05:21.986Z,99666.19
2023-04-01T11:08:09.859Z,99644.69
2023-04-01T11:10:58.799Z,99657.50
2023-04-01T11:13:48.136Z,99659.28
2023-04-01T11:16:40.228Z,99658.66
2023-04-01T11:19:22.624Z,99657.66
2023-04-01T11:22:11.253Z,99662.06
2023-04-01T11:25:15.968Z,99663.38
2023-04-01T11:27:57.918Z,99656.78
2023-04-01T11:31:05.072Z,99655.59
2023-04-01T11:33:41.526Z,99654.97
2023-04-01T11:36:30.894Z,99657.22
2023-04-01T11:39:26.097Z,99655.91
2023-04-01T11:42:11.363Z,99648.91
2023-04-01T11:45:02.676Z,99655.25
2023-04-01T11:48:10.573Z,99645.88
2023-04-01T11:51:11.853Z,99650.00
2023-04-01T11:53:45.336Z,99651.41
2023-04-01T11:57:05.547Z,99644.44
2023-04-01T11:59:51.488Z,99647.22
2023-04-01T12:02:36.508Z,99649.88
2023-04-01T12:05:44.812Z,99641.44
2023-04-01T12:08:28.312Z,99638.03
2023-04-01T12:11:27.506Z,99633.19
2023-04-01T12:14:17.633Z,99638.41
2023-04-01T12:17:14.343Z,99627.97
2023-04-01T12:19:49.334Z,99639.09
2023-04-01T12:22:41.505Z,99639.22
2023-04-01T12:25:49.036Z,99627.19
2023-04-01T12:28:59.178Z,99627.44
2023-04-01T12:31:54.016Z,99614.19
2023-04-01T12:34:46.148Z,99626.84
2023-04-01T12:37:36.689Z,99629.28
2023-04-01T12:40:19.458Z,99625.97
2023-04-01T12:43:25.502Z,99615.78
2023-04-01T12:46:20.949Z,99611.88
2023-04-01T12:49:13.939Z,99615.03
2023-04-01T12:51:45.733Z,99610.41
2023-04-01T12:54:27.342Z,99618.34
2023-04-01T12:57:25.139Z,99606.19
2023-04-01T13:00:04.790Z,99609.28
2023-04-01T13:02:40.774Z,99607.06
2023-04-01T13:05:27.273Z,99603.06
2023-04-01T13:07:54.622Z,99600.34
2023-04-01T13:11:04.501Z,99603.75
2023-04-01T13:13:52.624Z,99597.34
2023-04-01T13:16:33.599Z,99593.78
2023-04-01T13:19:14.985Z,99595.13
2023-04-01T13:21:55.326Z,99595.50
2023-04-01T13:24:47.514Z,99586.44
2023-04-01T13:27:23.715Z,99586.91
2023-04-01T13:29:53.823Z,99583.91
2023-04-01T13:32:40.806Z,99580.38
2023-04-01T13:35:30.231Z,99575.50
2023-04-01T13:38:06.492Z,99565.53
2023-04-01T13:41:03.459Z,99574.13
2023-04-01T13:43:43.327Z,99565.22
2023-04-01T13:46:25.552Z,99559.66
2023-04-01T13:49:28.860Z,99553.16
2023-04-01T13:52:26.389Z,99548.63
2023-04-01T13:55:05.905Z,99550.81
2023-04-01T13:57:58.760Z,99546.28
2023-04-01T14:00:51.357Z,99537.00
2023-04-01T14:03:38.077Z,99541.28
2023-04-01T14:06:30.661Z,99539.31
2023-04-01T14:09:17.759Z,99541.63
2023-04-01T14:12:12.806Z,99538.09
2023-04-01T14:14:52.519Z,99519.34
2023-04-01T14:17:47.425Z,99524.75
2023-04-01T14:20:27.063Z,99514.69
2023-04-01T14:23:15.196Z,99515.69
2023-04-01T14:25:49.783Z,99523.25
2023-04-01T14:28:51.997Z,99525.38
2023-04-01T14:31:31.841Z,99518.34
2023-04-01T14:34:05.771Z,99513.50
2023-04-01T14:36:51.713Z,99520.72
2023-04-01T14:39:37.481Z,99500.28
2023-04-01T14:42:21.840Z,99495.78
2023-04-01T14:45:07.506Z,99490.81
2023-04-01T14:47:55.651Z,99500.56
2023-04-01T14:50:26.151Z,99491.09
2023-04-01T14:53:00.313Z,99490.75
2023-04-01T14:55:34.252Z,99491.94
2023-04-01T14:58:11.421Z,99496.81
2023-04-01T15:01:00.683Z,99491.03
2023-04-01T15:03:31.108Z,99499.31
2023-04-01T15:06:19.843Z,99488.50
2023-04-01T15:08:49.917Z,99480.91
2023-04-01T15:11:41.824Z,99488.03
2023-04-01T15:14:39.405Z,99484.06
2023-04-01T15:17:31.325Z,99468.34
2023-04-01T15:20:34.227Z,99477.97
2023-04-01T15:23:25.994Z,99478.25
2023-04-01T15:25:56.374Z,99478.88
2023-04-01T15:28:40.418Z,99481.56
2023-04-01T15:31:36.271Z,99478.22
2023-04-01T15:34:35.597Z,99476.56
2023-04-01T15:37:12.010Z,99486.63
2023-04-01T15:39:47.863Z,99475.09
2023-04-01T15:42:20.965Z,99483.78
2023-04-01T15:44:54.069Z,99483.78
2023-04-01T15:47:27.315Z,99482.03
2023-04-01T15:50:32.241Z,99484.31
2023-04-01T15:53:21.884Z,99490.88
2023-04-01T15:56:10.830Z,99484.38
2023-04-01T15:58:47.164Z,99486.72
2023-04-01T16:01:36.056Z,99491.97
2023-04-01T16:04:37.494Z,99488.50
2023-04-01T16:07:29.786Z,99489.63
2023-04-01T16:10:20.410Z,99486.94
2023-04-01T16:13:01.208Z,99480.06
2023-04-01T16:15:50.176Z,99477.09
2023-04-01T16:18:44.216Z,99475.06
2023-04-01T16:21:26.462Z,99466.22
2023-04-01T16:24:02.617Z,99457.53
2023-04-01T16:26:34.018Z,99472.38
2023-04-01T16:29:28.062Z,99456.84
2023-04-01T16:32:15.579Z,99474.09
2023-04-01T16:35:06.095Z,99476.28
2023-04-01T16:37:52.416Z,99468.56
2023-04-01T16:40:35.585Z,99474.84
2023-04-01T16:43:25.783Z,99466.34
2023-04-01T16:45:55.813Z,99472.16
2023-04-01T16:48:35.748Z,99470.16
2023-04-01T16:51:16.297Z,99469.81
2023-04-01T16:54:04.004Z,99476.34
2023-04-01T16:56:51.475Z,99472.28
2023-04-01T16:59:28.341Z,99470.56
2023-04-01T17:02:11.843Z,99469.84
2023-04-01T17:04:54.569Z,99472.81
2023-04-01T17:07:43.333Z,99472.13
2023-04-01T17:10:29.402Z,99474.63
2023-04-01T17:13:11.549Z,99477.28
2023-04-01T17:15:48.529Z,99472.16
2023-04-01T17:18:35.736Z,99471.41
2023-04-01T17:21:15.035Z,99475.22
2023-04-01T17:23:53.179Z,99482.44
2023-04-01T17:26:47.435Z,99476.81
2023-04-01T17:29:53.282Z,99471.28
2023-04-01T17:32:40.957Z,99484.03
2023-04-01T17:35:20.369Z,99483.19
2023-04-01T17:38:15.086Z,99487.47
2023-04-01T17:40:53.672Z,99487.44
2023-04-01T17:43:47.411Z,99479.81
2023-04-01T17:46:42.182Z,99488.50
2023-04-01T17:49:09.585Z,99486.91
2023-04-01T17:51:44.511Z,99484.41
2023-04-01T17:54:32.111Z,99493.47
2023-04-01T17:57:27.423Z,99507.00
2023-04-01T18:00:18.036Z,99501.00
2023-04-01T18:03:16.445Z,99510.91
2023-04-01T18:05:59.320Z,99512.59
2023-04-01T18:08:52.707Z,99512.75
2023-04-01T18:11:29.303Z,99512.34
2023-04-01T18:14:11.736Z,99522.03
2023-04-01T18:17:21.565Z,99525.06
2023-04-01T18:19:58.921Z,99523.22
2023-04-01T18:22:35.581Z,99527.94
2023-04-01T18:25:15.855Z,99524.31
2023-04-01T18:27:51.504Z,99526.47
2023-04-01T18:30:30.319Z,99536.03
2023-04-01T18:33:03.618Z,99536.69
2023-04-01T18:36:08.743Z,99553.53
2023-04-01T18:38:47.838Z,99563.84
2023-04-01T18:41:27.260Z,99554.94
2023-04-01T18:44:26.493Z,99564.94
2023-04-01T18:47:08.988Z,99557.53
2023-04-01T18:49:49.144Z,99557.47
2023-04-01T18:52:20.905Z,99572.88
2023-04-01T18:55:34.141Z,99570.28
2023-04-01T18:58:19.975Z,99574.59
2023-04-01T19:01:15.251Z,99590.16
2023-04-01T19:04:00.523Z,99585.53
2023-04-01T19:06:36.413Z,99583.19
2023-04-01T19:09:21.086Z,99577.25
2023-04-01T19:12:23.889Z,99585.41
2023-04-01T19:14:59.958Z,99583.13
2023-04-01T19:17:55.307Z,99596.78
2023-04-01T19:20:58.385Z,99591.69
2023-04-01T19:23:37.799Z,99598.47
2023-04-01T19:26:07.676Z,99599.81
2023-04-01T19:28:44.278Z,99604.97
2023-04-01T19:31:40.488Z,99612.19
2023-04-01T19:34:26.015Z,99614.00
2023-04-01T19:37:45.316Z,99617.66
2023-04-01T19:40:50.864Z,99613.41
2023-04-01T19:43:42.566Z,99623.00
2023-04-01T19:46:32.883Z,99627.19
2023-04-01T19:49:22.223Z,99627.38
2023-04-01T19:52:31.914Z,99630.66
2023-04-01T19:55:16.147Z,99632.19
2023-04-01T19:58:11.509Z,99629.97
2023-04-01T20:00:45.712Z,99633.63
2023-04-01T20:03:27.467Z,99631.16
2023-04-01T20:06:22.946Z,99635.44
2023-04-01T20:09:21.207Z,99637.09
2023-04-01T20:12:06.800Z,99634.19
2023-04-01T20:14:44.544Z,99631.09
2023-04-01T20:17:33.705Z,99632.03
2023-04-01T20:20:16.652Z,99627.53
2023-04-01T20:22:45.137Z,99636.16
2023-04-01T20:25:31.298Z,99631.28
2023-04-01T20:28:20.424Z,99629.75
2023-04-01T20:31:03.136Z,99631.00
2023-04-01T20:34:01.658Z,99630.53
2023-04-01T20:36:41.594Z,99640.81
2023-04-01T20:39:28.545Z,99640.56
2023-04-01T20:42:25.620Z,99632.84
2023-04-01T20:44:55.920Z,99639.06
2023-04-01T20:47:38.210Z,99645.28
2023-04-01T20:50:08.923Z,99656.97
2023-04-01T20:52:46.234Z,99657.06
2023-04-01T20:55:13.553Z,99647.19
2023-04-01T20:58:14.787Z,99645.84
2023-04-01T21:01:13.086Z,99662.69
2023-04-01T21:03:59.743Z,99661.84
2023-04-01T21:06:53.777Z,99665.47
2023-04-01T21:09:38.607Z,99664.72
2023-04-01T21:12:24.428Z,99668.56
2023-04-01T21:15:32.428Z,99661.47
2023-04-01T21:18:25.423Z,99676.03
2023-04-01T21:21:17.898Z,99664.72
2023-04-01T21:24:12.856Z,99662.91
2023-04-01T21:26:43.827Z,99667.97
2023-04-01T21:30:00.645Z,99667.72
2023-04-01T21:32:49.915Z,99679.94
2023-04-01T21:35:37.660Z,99678.44
2023-04-01T21:38:23.977Z,99678.53
2023-04-01T21:41:17.680Z,99681.13
2023-04-01T21:43:57.162Z,99690.13
2023-04-01T21:47:02.852Z,99688.41
2023-04-01T21:49:54.658Z,99676.81
2023-04-01T21:52:41.060Z,99681.22
2023-04-01T21:55:34.950Z,99684.75
2023-04-01T21:58:33.231Z,99683.31
2023-04-01T22:01:09.438Z,99689.63
2023-04-01T22:03:48.606Z,99693.19
2023-04-01T22:06:44.333Z,99688.78
2023-04-01T22:09:19.269Z,99697.19
2023-04-01T22:11:55.419Z,99692.63
2023-04-01T22:14:54.092Z,99666.44
2023-04-01T22:17:34.948Z,99682.66
2023-04-01T22:20:46.075Z,99677.66
2023-04-01T22:23:34.063Z,99681.97
2023-04-01T22:26:10.897Z,99677.38
2023-04-01T22:28:51.921Z,99680.44
2023-04-01T22:31:33.198Z,99683.97
2023-04-01T22:34:12.688Z,99687.16
2023-04-01T22:37:21.191Z,99666.63
2023-04-01T22:39:57.625Z,99680.94
2023-04-01T22:42:34.040Z,99685.59
2023-04-01T22:45:11.835Z,99676.69
2023-04-01T22:48:02.641Z,99680.34
2023-04-01T22:50:37.878Z,99675.81
2023-04-01T22:53:24.281Z,99681.03
2023-04-01T22:55:54.128Z,99681.13
2023-04-01T22:58:39.806Z,99681.69
2023-04-01T23:01:13.852Z,99688.19
2023-04-01T23:03:44.549Z,99672.47
2023-04-01T23:06:36.582Z,99686.38
2023-04-01T23:09:15.986Z,99692.59
2023-04-01T23:11:55.470Z,99688.03
2023-04-01T23:14:24.308Z,99688.22
2023-04-01T23:17:21.721Z,99689.47
2023-04-01T23:20:06.980Z,99695.94
2023-04-01T23:22:44.888Z,99697.09
2023-04-01T23:25:17.446Z,99690.59
2023-04-01T23:28:15.496Z,99689.09
2023-04-01T23:30:42.856Z,99696.66
2023-04-01T23:33:19.128Z,99691.03
2023-04-01T23:35:53.904Z,99695.19
2023-04-01T23:38:24.259Z,99695.06
2023-04-01T23:40:54.597Z,99689.13
2023-04-01T23:43:32.443Z,99697.97
2023-04-01T23:46:04.643Z,99696.69
2023-04-01T23:48:36.639Z,99694.72
2023-04-01T23:51:04.964Z,99704.47
2023-04-01T23:53:35.108Z,99702.31
2023-04-01T23:56:04.203Z,99696.09
2023-04-01T23:58:56.497Z,99696.00
